Time;durP1;ratioP1;P1;durP2;ratioP2;P2;SDS_P1;SDS_P2;PMS_P1;PMS_P2;Temp;Humidity;BMP_temperature;BMP_pressure;BME280_temperature;BME280_humidity;BME280_pressure;Samples;Min_cycle;Max_cycle;Signal;HPM_P1;HPM_P2
2022/08/19 00:01:58;;;;;;;11.35;5.57;;;;;;;21.63;57.78;99601.50;5114600;28;20464;-62
2022/08/19 00:04:30;;;;;;;10.45;5.75;;;;;;;21.60;58.07;99606.19;5114767;28;20054;-63
2022/08/19 00:06:57;;;;;;;8.52;5.20;;;;;;;21.60;57.86;99613.38;5114486;28;20578;-63
2022/08/19 00:09:24;;;;;;;10.52;5.35;;;;;;;21.59;58.06;99609.88;5114128;28;20044;-63
2022/08/19 00:11:52;;;;;;;7.30;5.85;;;;;;;21.58;57.82;99610.88;5096099;28;20097;-63
2022/08/19 00:14:20;;;;;;;6.85;5.82;;;;;;;21.57;57.92;99597.66;5114184;28;20388;-63
2022/08/19 00:16:48;;;;;;;7.35;6.00;;;;;;;21.56;57.88;99607.50;5114165;28;20466;-63
2022/08/19 00:19:16;;;;;;;7.78;5.25;;;;;;;21.56;57.95;99610.19;5095718;28;20035;-63
2022/08/19 00:21:43;;;;;;;6.47;5.13;;;;;;;21.54;57.68;99608.66;5114070;28;20104;-63
2022/08/19 00:24:12;;;;;;;9.00;5.80;;;;;;;21.53;58.32;99609.69;5113908;28;20070;-63
2022/08/19 00:26:39;;;;;;;7.53;4.90;;;;;;;21.52;57.95;99611.50;5095645;28;20054;-63
2022/08/19 00:29:14;;;;;;;5.50;4.40;;;;;;;21.48;58.52;99616.38;5113843;28;20368;-63
2022/08/19 00:31:42;;;;;;;6.00;4.63;;;;;;;21.50;58.04;99610.00;5114106;28;20044;-62
2022/08/19 00:34:11;;;;;;;7.78;5.20;;;;;;;21.47;57.88;99608.50;5113958;28;20089;-62
2022/08/19 00:36:39;;;;;;;6.10;4.43;;;;;;;21.44;57.86;99606.13;5113864;28;20377;-64
2022/08/19 00:39:06;;;;;;;5.75;4.50;;;;;;;21.40;57.86;99607.44;5113494;28;20096;-64
2022/08/19 00:41:32;;;;;;;7.35;4.30;;;;;;;21.34;57.80;99601.75;5114140;28;20392;-62
2022/08/19 00:44:03;;;;;;;6.03;4.47;;;;;;;21.29;57.88;99603.22;5113894;28;20043;-62
2022/08/19 00:46:31;;;;;;;6.90;4.75;;;;;;;21.24;57.99;99614.44;5113810;28;20044;-63
2022/08/19 00:48:59;;;;;;;7.60;5.00;;;;;;;21.17;58.23;99608.88;5095503;28;20109;-64
2022/08/19 00:51:29;;;;;;;8.25;4.65;;;;;;;21.12;58.38;99608.50;5095481;28;20047;-65
2022/08/19 00:53:58;;;;;;;5.20;4.28;;;;;;;21.07;58.82;99603.66;5113439;28;20126;-63
2022/08/19 00:56:26;;;;;;;6.60;4.60;;;;;;;21.06;58.90;99601.13;5113580;28;20040;-63
2022/08/19 00:58:56;;;;;;;6.28;4.85;;;;;;;21.05;58.86;99608.31;5113509;28;20187;-63
2022/08/19 01:01:22;;;;;;;5.38;4.85;;;;;;;21.05;58.74;99604.81;5095313;28;20101;-63
2022/08/19 01:03:49;;;;;;;7.20;4.53;;;;;;;21.03;58.75;99594.25;5113136;28;20373;-63
2022/08/19 01:06:25;;;;;;;5.22;4.70;;;;;;;21.01;58.35;99601.59;5113595;28;20100;-63
2022/08/19 01:08:53;;;;;;;6.70;4.88;;;;;;;21.00;58.59;99591.91;5113386;28;20044;-62
2022/08/19 01:11:20;;;;;;;7.78;4.95;;;;;;;20.99;58.52;99594.72;5095180;28;20052;-63
2022/08/19 01:13:46;;;;;;;5.72;5.05;;;;;;;20.96;58.68;99588.72;5113075;28;20437;-63
2022/08/19 01:16:17;;;;;;;7.97;5.95;;;;;;;20.94;58.92;99585.34;5113241;28;20048;-62
2022/08/19 01:18:44;;;;;;;6.50;5.80;;;;;;;20.92;58.94;99583.81;5077859;28;20052;-62
2022/08/19 01:21:21;;;;;;;8.60;5.88;;;;;;;20.87;59.30;99589.69;5113093;28;20051;-65
2022/08/19 01:23:48;;;;;;;8.52;5.70;;;;;;;20.87;58.66;99588.78;5094642;28;20052;-62
2022/08/19 01:26:18;;;;;;;7.97;6.63;;;;;;;20.82;59.12;99590.09;5112621;28;20052;-65
2022/08/19 01:28:47;;;;;;;8.23;6.95;;;;;;;20.80;59.01;99585.91;5094483;28;20069;-64
2022/08/19 01:31:21;;;;;;;8.30;6.55;;;;;;;20.75;59.11;99578.34;5095129;28;20450;-64
2022/08/19 01:33:55;;;;;;;7.18;6.32;;;;;;;20.71;59.08;99566.31;5095473;28;20081;-64
2022/08/19 01:36:26;;;;;;;7.85;6.53;;;;;;;20.67;59.58;99571.13;5094606;28;20051;-63
2022/08/19 01:38:53;;;;;;;10.90;6.70;;;;;;;20.65;59.04;99565.13;5094399;28;20096;-63
2022/08/19 01:41:23;;;;;;;7.95;7.00;;;;;;;20.62;59.17;99564.56;5112545;28;20051;-62
2022/08/19 01:43:51;;;;;;;9.77;7.70;;;;;;;20.61;59.21;99568.25;5112473;28;20040;-62
2022/08/19 01:46:38;;;;;;;10.07;7.90;;;;;;;20.58;59.16;99572.09;5097300;28;20130;-64
2022/08/19 01:49:06;;;;;;;8.25;7.25;;;;;;;20.55;59.31;99569.72;5112436;28;20051;-61
2022/08/19 01:51:33;;;;;;;8.63;7.05;;;;;;;20.52;59.07;99573.53;5094722;28;20055;-63
2022/08/19 01:54:06;;;;;;;9.45;7.20;;;;;;;20.50;59.13;99577.38;5112340;28;20155;-62
2022/08/19 01:56:32;;;;;;;19.08;7.68;;;;;;;20.48;59.14;99571.34;5094415;28;20461;-63
2022/08/19 01:59:04;;;;;;;10.23;8.10;;;;;;;20.47;59.43;99577.69;5112397;28;20103;-62
2022/08/19 02:01:32;;;;;;;10.35;7.70;;;;;;;20.47;59.21;99570.50;5112341;28;20088;-62
2022/08/19 02:04:00;;;;;;;9.75;7.03;;;;;;;20.47;59.00;99569.66;5112182;28;20047;-62
2022/08/19 02:06:28;;;;;;;9.32;7.93;;;;;;;20.47;58.91;99566.97;5111595;28;20053;-63
2022/08/19 02:08:55;;;;;;;11.07;7.55;;;;;;;20.46;59.17;99566.16;5111716;28;20047;-62
2022/08/19 02:11:31;;;;;;;;;;;;;;;20.45;58.67;99569.84;5112546;28;20050;-66
2022/08/19 02:13:58;;;;;;;10.30;7.07;;;;;;;20.51;58.40;99573.69;5112003;28;19920;-63
2022/08/19 02:16:25;;;;;;;8.57;6.65;;;;;;;20.49;58.40;99567.69;5112063;28;20039;-62
2022/08/19 02:18:52;;;;;;;7.72;6.65;;;;;;;20.44;58.76;99560.13;5111632;28;20043;-63
2022/08/19 02:21:21;;;;;;;9.50;7.15;;;;;;;20.42;58.71;99568.28;5111839;28;20525;-62
2022/08/19 02:23:49;;;;;;;7.55;6.57;;;;;;;20.41;58.92;99560.44;5076772;28;20548;-65
2022/08/19 02:26:17;;;;;;;9.05;7.20;;;;;;;20.39;59.35;99567.78;5093506;28;20047;-64
2022/08/19 02:28:44;;;;;;;8.73;6.55;;;;;;;20.38;59.07;99564.28;5111794;28;20080;-63
2022/08/19 02:31:16;;;;;;;8.25;7.07;;;;;;;20.38;59.20;99566.09;5111583;28;20088;-62
2022/08/19 02:33:44;;;;;;;9.85;6.93;;;;;;;20.37;59.17;99573.28;5111669;28;20058;-63
2022/08/19 02:36:13;;;;;;;8.40;6.47;;;;;;;20.38;59.86;99560.75;5093587;28;20100;-62
2022/08/19 02:38:41;;;;;;;7.75;6.70;;;;;;;20.39;59.28;99557.94;5093691;28;20046;-62
2022/08/19 02:41:13;;;;;;;8.65;6.60;;;;;;;20.36;59.56;99557.38;5111663;28;20052;-62
2022/08/19 02:43:40;;;;;;;7.80;6.93;;;;;;;20.39;59.31;99551.75;5111524;28;20077;-63
2022/08/19 02:46:29;;;;;;;7.93;6.18;;;;;;;20.38;59.15;99545.56;5111940;28;20124;-62
2022/08/19 02:49:00;;;;;;;11.82;7.13;;;;;;;20.37;59.18;99551.88;5111373;28;20077;-62
2022/08/19 02:51:39;;;;;;;8.43;6.85;;;;;;;20.36;59.33;99552.03;5093261;28;20092;-62
2022/08/19 02:54:08;;;;;;;8.40;7.43;;;;;;;20.34;59.46;99549.56;5093448;28;20043;-63
2022/08/19 02:56:37;;;;;;;8.32;6.85;;;;;;;20.34;59.22;99546.03;5111310;28;20063;-65
2022/08/19 02:59:11;;;;;;;9.07;6.88;;;;;;;20.33;59.38;99547.84;5111197;28;20047;-62
2022/08/19 03:01:40;;;;;;;11.52;7.03;;;;;;;20.32;59.43;99548.84;5111273;28;20047;-62
2022/08/19 03:04:12;;;;;;;13.15;7.47;;;;;;;20.28;60.06;99542.13;5111156;28;20134;-63
2022/08/19 03:06:41;;;;;;;7.07;6.20;;;;;;;20.27;60.06;99537.78;5093283;28;20043;-62
2022/08/19 03:09:09;;;;;;;7.43;6.47;;;;;;;20.25;60.11;99531.75;5092825;28;20035;-63
2022/08/19 03:11:36;;;;;;;10.80;6.90;;;;;;;20.24;60.10;99532.75;5111261;28;20043;-63
2022/08/19 03:14:05;;;;;;;8.93;6.78;;;;;;;20.22;60.29;99530.22;5111095;28;20044;-63
2022/08/19 03:16:39;;;;;;;7.82;6.75;;;;;;;20.20;60.28;99532.25;5111195;28;20047;-63
2022/08/19 03:19:05;;;;;;;9.05;6.80;;;;;;;20.20;59.92;99534.91;5112721;28;20100;-63
2022/08/19 03:21:33;;;;;;;9.45;6.13;;;;;;;20.18;60.36;99534.22;5115216;28;20124;-63
2022/08/19 03:24:03;;;;;;;7.45;6.10;;;;;;;20.16;61.11;99526.38;5115322;28;20039;-62
2022/08/19 03:26:30;;;;;;;6.95;5.47;;;;;;;20.18;60.31;99529.72;5115231;28;20100;-62
2022/08/19 03:28:57;;;;;;;7.18;5.53;;;;;;;20.18;60.58;99532.38;5114756;28;20075;-63
2022/08/19 03:31:26;;;;;;;6.13;5.35;;;;;;;20.19;60.43;99530.56;5115022;28;20438;-62
2022/08/19 03:34:17;;;;;;;7.78;5.90;;;;;;;20.20;60.38;99526.91;5113713;28;20479;-62
2022/08/19 03:36:45;;;;;;;6.30;5.55;;;;;;;20.22;60.62;99532.09;5114840;28;20047;-63
2022/08/19 03:39:13;;;;;;;6.00;5.40;;;;;;;20.22;60.35;99534.75;5114633;28;20044;-64
2022/08/19 03:41:42;;;;;;;8.10;5.43;;;;;;;20.22;60.13;99540.09;5096642;28;20055;-63
2022/08/19 03:44:10;;;;;;;6.07;5.43;;;;;;;20.22;59.97;99540.09;5115007;28;20048;-63
2022/08/19 03:46:43;;;;;;;;;;;;;;;20.20;59.51;99553.63;5115268;28;20047;-62
2022/08/19 03:49:10;;;;;;;7.43;5.75;;;;;;;20.25;59.75;99548.63;5114682;28;20010;-63
2022/08/19 03:51:41;;;;;;;7.55;5.93;;;;;;;20.23;59.73;99557.81;5114768;28;20051;-62
2022/08/19 03:54:11;;;;;;;8.65;6.25;;;;;;;20.21;60.28;99557.09;5114654;28;20048;-63
2022/08/19 03:56:39;;;;;;;8.52;6.18;;;;;;;20.19;60.46;99557.28;5096933;28;20047;-62
2022/08/19 03:59:10;;;;;;;8.52;7.10;;;;;;;20.16;60.72;99558.44;5114656;28;20518;-62
2022/08/19 04:01:37;;;;;;;8.68;6.82;;;;;;;20.18;60.95;99560.94;5096716;28;20043;-64
2022/08/19 04:04:04;;;;;;;10.35;6.78;;;;;;;20.18;61.00;99556.44;5114592;28;20051;-63
2022/08/19 04:06:33;;;;;;;8.63;6.65;;;;;;;20.18;61.21;99559.13;5114312;28;20108;-63
2022/08/19 04:09:06;;;;;;;10.02;6.80;;;;;;;20.17;61.61;99559.25;5114122;28;20341;-62
2022/08/19 04:11:39;;;;;;;8.70;7.55;;;;;;;20.20;61.30;99552.75;5096526;28;20408;-63
2022/08/19 04:14:12;;;;;;;8.55;6.55;;;;;;;20.21;61.02;99559.78;5114333;28;20051;-62
2022/08/19 04:16:38;;;;;;;9.05;7.13;;;;;;;20.20;60.64;99560.78;5114144;28;20042;-62
2022/08/19 04:19:06;;;;;;;8.07;7.22;;;;;;;20.18;60.67;99563.59;5114016;28;20124;-63
2022/08/19 04:21:33;;;;;;;10.70;7.60;;;;;;;20.16;60.97;99561.13;5114033;28;20468;-62
2022/08/19 04:24:00;;;;;;;11.98;8.60;;;;;;;20.13;61.29;99564.09;5114291;28;20089;-62
2022/08/19 04:26:34;;;;;;;9.27;7.75;;;;;;;20.11;61.72;99567.91;5113963;28;20039;-62
2022/08/19 04:29:05;;;;;;;10.27;7.22;;;;;;;20.09;61.62;99564.53;5113528;28;20047;-62
2022/08/19 04:31:36;;;;;;;9.88;7.95;;;;;;;20.09;61.58;99577.91;5096501;28;20105;-62
2022/08/19 04:34:06;;;;;;;12.45;8.40;;;;;;;20.07;62.32;99575.38;5113741;28;20040;-62
2022/08/19 04:36:35;;;;;;;12.50;9.88;;;;;;;20.07;62.25;99567.34;5114092;28;20039;-62
2022/08/19 04:39:10;;;;;;;12.57;8.80;;;;;;;20.05;62.57;99566.69;5113587;28;20047;-63
2022/08/19 04:44:22;;;;;;;12.32;8.45;;;;;;;20.07;61.90;99567.34;5113722;28;20043;-62
2022/08/19 04:46:50;;;;;;;12.85;8.73;;;;;;;20.07;62.00;99564.69;5095731;28;20043;-62
2022/08/19 04:49:22;;;;;;;9.55;7.80;;;;;;;20.04;62.56;99557.81;5113481;28;20105;-63
2022/08/19 04:51:52;;;;;;;12.63;8.73;;;;;;;20.07;62.06;99559.34;5113645;28;20043;-63
2022/08/19 04:54:22;;;;;;;10.05;7.80;;;;;;;20.09;61.96;99562.72;5113501;28;20036;-62
2022/08/19 04:57:08;;;;;;;11.02;8.70;;;;;;;20.10;61.91;99567.06;5113714;28;20051;-62
2022/08/19 04:59:36;;;;;;;9.98;8.25;;;;;;;20.11;61.94;99571.41;5113400;28;20468;-62
2022/08/19 05:02:04;;;;;;;10.57;8.23;;;;;;;20.13;62.22;99580.13;5113592;28;20052;-64
2022/08/19 05:04:31;;;;;;;13.30;9.75;;;;;;;20.13;62.09;99577.44;5113428;28;20085;-63
2022/08/19 05:07:00;;;;;;;10.45;9.18;;;;;;;20.16;62.44;99579.81;5113313;28;20089;-62
2022/08/19 05:09:28;;;;;;;12.90;9.60;;;;;;;20.18;62.71;99580.50;5113495;28;20051;-63
2022/08/19 05:12:15;;;;;;;13.32;9.93;;;;;;;20.21;62.58;99574.00;5113083;28;20075;-62
2022/08/19 05:14:43;;;;;;;14.85;10.02;;;;;;;20.25;62.44;99582.53;5113247;28;20039;-62
2022/08/19 05:17:09;;;;;;;19.08;11.73;;;;;;;20.26;62.56;99585.06;5113218;28;20050;-62
2022/08/19 05:22:39;;;;;;;14.57;9.65;;;;;;;20.33;62.96;99584.44;5113403;28;21163;-62
2022/08/19 05:25:10;;;;;;;10.02;8.05;;;;;;;20.35;63.34;99582.44;5113025;28;20043;-62
2022/08/19 05:27:41;;;;;;;12.02;8.77;;;;;;;20.40;62.94;99580.13;5112836;28;20476;-62
2022/08/19 05:30:08;;;;;;;12.40;9.57;;;;;;;20.43;63.01;99590.53;5112825;28;20520;-62
2022/08/19 05:32:35;;;;;;;11.55;9.02;;;;;;;20.48;62.83;99585.53;5112825;28;20084;-63
2022/08/19 05:35:03;;;;;;;16.88;9.07;;;;;;;20.53;63.09;99593.09;5112736;28;20482;-63
2022/08/19 05:37:29;;;;;;;13.68;9.40;;;;;;;20.56;63.22;99592.81;5112875;28;20125;-62
2022/08/19 05:39:56;;;;;;;14.18;9.32;;;;;;;20.60;62.82;99596.00;5112396;28;20100;-63
2022/08/19 05:42:23;;;;;;;10.63;8.68;;;;;;;20.64;63.27;99589.34;5111969;28;20044;-62
2022/08/19 05:44:50;;;;;;;13.25;8.70;;;;;;;20.67;63.23;99589.84;5094719;28;20043;-62
2022/08/19 05:47:19;;;;;;;12.27;9.10;;;;;;;20.72;63.61;99588.53;5113035;28;20063;-62
2022/08/19 05:49:47;;;;;;;12.07;8.35;;;;;;;20.76;63.51;99574.72;5094169;28;20548;-63
2022/08/19 05:52:15;;;;;;;11.00;8.20;;;;;;;20.81;63.69;99584.91;5112663;28;20472;-61
2022/08/19 05:54:47;;;;;;;12.20;7.75;;;;;;;20.87;63.59;99580.75;5112579;28;20039;-62
2022/08/19 05:57:18;;;;;;;12.27;7.82;;;;;;;20.93;63.54;99588.22;5112430;28;20447;-62
2022/08/19 05:59:48;;;;;;;9.23;7.18;;;;;;;21.00;63.56;99575.84;5112198;28;20079;-63
2022/08/19 06:02:19;;;;;;;9.80;6.47;;;;;;;21.05;63.40;99584.22;5112417;28;20043;-63
2022/08/19 06:04:45;;;;;;;8.30;6.47;;;;;;;21.11;63.30;99577.41;5112225;28;20043;-63
2022/08/19 06:07:12;;;;;;;8.15;6.10;;;;;;;21.17;63.44;99579.44;5112000;28;20044;-63
2022/08/19 06:09:40;;;;;;;8.80;6.28;;;;;;;21.21;63.44;99575.44;5111813;28;20433;-63
2022/08/19 06:12:09;;;;;;;7.45;5.38;;;;;;;21.29;63.32;99579.13;5112281;28;20122;-63
2022/08/19 06:14:36;;;;;;;8.35;5.75;;;;;;;21.34;63.45;99582.16;5111915;28;20035;-62
2022/08/19 06:17:07;;;;;;;9.73;6.45;;;;;;;21.40;63.30;99581.53;5112228;28;20498;-62
2022/08/19 06:19:33;;;;;;;9.90;5.57;;;;;;;21.45;63.10;99581.88;5111888;28;20039;-63
2022/08/19 06:22:06;;;;;;;7.75;6.75;;;;;;;21.52;63.21;99590.09;5111982;28;20043;-62
2022/08/19 06:24:32;;;;;;;9.77;7.03;;;;;;;21.56;62.94;99591.44;5111982;28;20047;-64
2022/08/19 06:26:59;;;;;;;9.73;7.28;;;;;;;21.63;63.04;99588.13;5111823;28;20104;-62
2022/08/19 06:29:29;;;;;;;11.30;6.95;;;;;;;21.66;63.30;99577.91;5111499;28;20551;-62
2022/08/19 06:31:59;;;;;;;11.50;7.05;;;;;;;21.70;62.86;99579.25;5112243;28;20176;-66
2022/08/19 06:34:28;;;;;;;15.75;6.45;;;;;;;21.74;62.95;99583.31;5111483;28;20471;-63
2022/08/19 06:36:55;;;;;;;9.25;7.03;;;;;;;21.80;62.75;99589.84;5093508;28;20101;-62
2022/08/19 06:39:28;;;;;;;9.80;7.32;;;;;;;21.82;62.97;99581.63;5111557;28;20044;-62
2022/08/19 06:41:58;;;;;;;10.20;6.57;;;;;;;21.87;62.86;99572.09;5111790;28;20047;-62
2022/08/19 06:44:27;;;;;;;8.43;6.32;;;;;;;21.91;62.48;99569.09;5111689;28;20077;-61
2022/08/19 06:46:55;;;;;;;10.75;6.53;;;;;;;21.95;62.34;99567.75;5093726;28;20070;-63
2022/08/19 06:49:23;;;;;;;10.93;6.45;;;;;;;21.98;62.21;99568.25;5111192;28;20065;-62
2022/08/19 06:51:50;;;;;;;7.93;6.00;;;;;;;22.01;62.31;99564.41;5093188;28;20040;-63
2022/08/19 06:54:18;;;;;;;7.10;5.00;;;;;;;22.04;62.34;99565.91;5111302;28;20048;-61
2022/08/19 06:56:46;;;;;;;7.40;5.05;;;;;;;22.08;62.11;99557.38;5093264;28;20487;-62
2022/08/19 06:59:17;;;;;;;9.48;5.90;;;;;;;22.12;62.21;99569.44;5111047;28;20093;-62
2022/08/19 07:01:47;;;;;;;8.43;5.40;;;;;;;22.17;62.03;99570.78;5111247;28;20079;-63
2022/08/19 07:04:16;;;;;;;6.70;5.07;;;;;;;22.22;62.27;99569.28;5111391;28;20047;-62
2022/08/19 07:06:44;;;;;;;6.68;4.97;;;;;;;22.28;62.36;99565.09;5111284;28;20088;-61
2022/08/19 07:09:20;;;;;;;8.35;5.60;;;;;;;22.32;62.13;99574.44;5111250;28;20395;-63
2022/08/19 07:11:49;;;;;;;7.70;5.05;;;;;;;22.38;62.16;99562.19;5111164;28;20054;-61
2022/08/19 07:14:18;;;;;;;6.65;4.88;;;;;;;22.43;62.21;99565.19;5111012;28;20485;-63
2022/08/19 07:16:48;;;;;;;7.65;5.10;;;;;;;22.47;62.03;99561.16;5093521;28;20120;-62
2022/08/19 07:19:16;;;;;;;6.45;5.47;;;;;;;22.54;62.20;99568.56;5110932;28;20046;-62
2022/08/19 07:21:45;;;;;;;8.15;5.63;;;;;;;22.59;61.67;99579.63;5111089;28;20040;-64
2022/08/19 07:24:12;;;;;;;10.57;6.22;;;;;;;22.64;61.55;99571.91;5092748;28;20055;-62
2022/08/19 07:26:42;;;;;;;7.38;5.85;;;;;;;22.69;61.52;99580.28;5110664;28;20093;-62
2022/08/19 07:29:10;;;;;;;8.90;5.72;;;;;;;22.75;61.27;99584.97;5092571;28;20043;-63
2022/08/19 07:31:37;;;;;;;8.10;5.72;;;;;;;22.81;61.33;99582.59;5092772;28;20097;-65
2022/08/19 07:34:06;;;;;;;11.68;5.55;;;;;;;22.86;61.15;99582.91;5092661;28;20373;-62
2022/08/19 07:36:36;;;;;;;6.00;4.53;;;;;;;22.93;61.05;99591.13;5110631;28;20055;-62
2022/08/19 07:39:08;;;;;;;5.65;4.55;;;;;;;22.98;61.27;99594.97;5110611;28;20092;-62
2022/08/19 07:41:36;;;;;;;7.40;5.18;;;;;;;23.06;60.98;99599.44;5110911;28;20043;-62
2022/08/19 07:44:05;;;;;;;7.70;5.20;;;;;;;23.12;60.83;99589.88;5111019;28;20040;-62
2022/08/19 07:46:32;;;;;;;6.70;5.28;;;;;;;23.18;60.76;99594.56;5092833;28;20120;-61
2022/08/19 07:49:00;;;;;;;7.88;4.82;;;;;;;23.23;60.22;99594.88;5110632;28;20039;-62
2022/08/19 07:51:27;;;;;;;7.78;5.20;;;;;;;23.27;60.25;99596.19;5110891;28;20051;-62
2022/08/19 07:54:02;;;;;;;6.00;4.72;;;;;;;23.33;60.38;99597.34;5093544;28;20079;-62
2022/08/19 07:56:28;;;;;;;7.20;4.25;;;;;;;23.38;59.98;99615.63;5111194;28;20043;-63
2022/08/19 07:58:55;;;;;;;6.28;4.80;;;;;;;23.44;60.03;99617.63;5110467;28;20475;-62
2022/08/19 08:01:27;;;;;;;5.43;4.90;;;;;;;23.49;60.27;99620.63;5110733;28;20112;-62
2022/08/19 08:09:33;;;;;;;8.93;4.75;;;;;;;23.71;59.30;99623.53;5114511;28;20048;-62
2022/08/19 08:12:07;;;;;;;7.20;4.18;;;;;;;23.79;59.47;99623.50;5114520;28;20050;-63
2022/08/19 08:15:01;;;;;;;6.45;4.65;;;;;;;23.88;58.96;99620.75;5114286;28;20491;-62
2022/08/19 08:17:29;;;;;;;7.60;4.85;;;;;;;23.97;58.83;99621.50;5114440;28;20047;-61
2022/08/19 08:20:15;;;;;;;5.80;4.38;;;;;;;24.05;58.89;99625.00;5114206;28;20151;-63
2022/08/19 08:25:29;;;;;;;6.75;4.45;;;;;;;24.23;59.16;99625.72;5113831;28;20047;-62
2022/08/19 08:27:59;;;;;;;5.75;4.28;;;;;;;24.32;58.88;99630.00;5114237;28;20062;-63
2022/08/19 08:30:27;;;;;;;6.20;5.13;;;;;;;24.41;58.43;99638.88;5113689;28;20051;-62
2022/08/19 08:32:56;;;;;;;5.22;4.72;;;;;;;24.52;58.23;99641.09;5096110;28;20088;-63
2022/08/19 08:35:24;;;;;;;4.78;4.10;;;;;;;24.62;58.05;99631.97;5113634;28;20054;-63
2022/08/19 08:37:53;;;;;;;6.72;4.45;;;;;;;24.70;57.79;99640.78;5114119;28;20479;-62
2022/08/19 08:40:26;;;;;;;6.25;5.28;;;;;;;24.78;56.82;99652.50;5113471;28;20055;-61
2022/08/19 08:43:09;;;;;;;6.65;5.75;;;;;;;24.85;56.80;99651.59;5113974;28;20040;-63
2022/08/19 08:46:15;;;;;;;6.25;5.18;;;;;;;24.97;57.13;99648.47;5095798;28;20039;-62
2022/08/19 08:49:18;;;;;;;4.95;4.45;;;;;;;25.08;56.25;99650.66;5078132;28;20043;-64
2022/08/19 08:51:51;;;;;;;6.50;3.83;;;;;;;25.21;56.29;99650.03;5113723;28;20039;-62
2022/08/19 08:54:34;;;;;;;4.75;4.25;;;;;;;25.33;55.81;99650.38;5096525;28;20092;-62
2022/08/19 08:57:07;;;;;;;6.70;3.75;;;;;;;25.45;55.34;99652.63;5113749;28;20040;-63
2022/08/19 08:59:36;;;;;;;;;;;;;;;25.55;56.46;99650.44;5113889;28;20047;-62
2022/08/19 09:02:03;;;;;;;3.95;3.42;;;;;;;25.72;55.79;99643.00;5113872;28;19945;-62
2022/08/19 09:04:30;;;;;;;4.78;3.92;;;;;;;25.83;54.97;99643.53;5095470;28;20472;-62
2022/08/19 09:07:26;;;;;;;4.93;3.75;;;;;;;25.87;55.04;99642.94;5113504;28;20085;-63
2022/08/19 09:10:08;;;;;;;3.25;2.90;;;;;;;26.00;53.85;99641.41;5096617;28;20143;-62
2022/08/19 09:12:46;;;;;;;5.50;3.30;;;;;;;26.09;54.22;99650.22;5113344;28;20075;-62
2022/08/19 09:15:14;;;;;;;6.07;3.55;;;;;;;26.22;53.76;99646.81;5113036;28;20040;-63
2022/08/19 09:17:41;;;;;;;4.97;4.15;;;;;;;26.32;53.49;99647.38;5112171;28;20128;-63
2022/08/19 09:20:10;;;;;;;3.80;3.17;;;;;;;26.39;52.22;99645.53;5113029;28;20502;-63
2022/08/19 09:22:43;;;;;;;5.82;3.58;;;;;;;26.51;52.26;99645.03;5113308;28;20043;-62
2022/08/19 09:25:14;;;;;;;4.65;2.60;;;;;;;26.61;50.87;99642.81;5112866;28;20047;-62
2022/08/19 09:27:42;;;;;;;3.30;2.60;;;;;;;26.72;51.76;99646.84;5094804;28;20092;-62
2022/08/19 09:30:16;;;;;;;3.38;2.72;;;;;;;26.86;51.02;99641.53;5112900;28;20535;-62
2022/08/19 09:32:45;;;;;;;4.90;2.90;;;;;;;27.02;51.40;99651.22;5112917;28;20136;-63
2022/08/19 09:35:12;;;;;;;3.30;2.13;;;;;;;27.17;50.61;99653.81;5112761;28;20078;-63
2022/08/19 09:37:40;;;;;;;3.00;2.70;;;;;;;27.30;50.13;99645.75;5112669;28;20043;-63
2022/08/19 09:40:09;;;;;;;4.25;3.20;;;;;;;27.42;49.68;99635.22;5112432;28;20102;-63
2022/08/19 09:42:38;;;;;;;4.85;3.15;;;;;;;27.52;49.02;99642.94;5113029;28;20039;-64
2022/08/19 09:45:20;;;;;;;4.75;3.17;;;;;;;27.57;48.92;99642.31;5112966;28;20135;-62
2022/08/19 09:47:47;;;;;;;3.47;3.10;;;;;;;27.60;48.34;99641.94;5112719;28;20055;-63
2022/08/19 09:50:14;;;;;;;3.13;2.25;;;;;;;27.58;48.21;99643.97;5112474;28;20364;-63
2022/08/19 09:52:42;;;;;;;3.92;2.72;;;;;;;27.56;49.07;99646.91;5112414;28;20039;-64
2022/08/19 09:55:23;;;;;;;4.25;2.97;;;;;;;27.57;48.89;99642.31;5112687;28;20050;-64
2022/08/19 09:58:01;;;;;;;6.70;3.00;;;;;;;27.60;49.44;99641.06;5095350;28;20130;-64
2022/08/19 10:00:30;;;;;;;4.13;2.72;;;;;;;27.67;49.29;99641.97;5112287;28;20074;-61
2022/08/19 10:02:57;;;;;;;5.32;3.00;;;;;;;27.76;48.85;99639.91;5112717;28;20043;-61
2022/08/19 10:08:11;;;;;;;3.83;2.58;;;;;;;27.93;48.29;99635.81;5112068;28;20470;-61
2022/08/19 10:10:43;;;;;;;4.18;2.53;;;;;;;28.00;47.53;99640.38;5112343;28;20445;-62
2022/08/19 10:13:14;;;;;;;5.75;2.53;;;;;;;28.03;47.30;99634.56;5112346;28;20130;-64
2022/08/19 10:15:41;;;;;;;4.88;2.30;;;;;;;28.04;47.07;99633.53;5111946;28;20089;-63
2022/08/19 10:18:14;;;;;;;2.60;2.40;;;;;;;28.02;47.31;99636.44;5112024;28;20403;-62
2022/08/19 10:20:43;;;;;;;3.70;2.63;;;;;;;28.01;46.57;99642.88;5111750;28;20040;-63
2022/08/19 10:23:09;;;;;;;3.53;2.40;;;;;;;28.02;46.43;99635.59;5111943;28;20051;-62
2022/08/19 10:25:37;;;;;;;3.35;2.60;;;;;;;28.02;46.57;99636.44;5111779;28;20063;-63
2022/08/19 10:28:05;;;;;;;4.00;2.28;;;;;;;28.05;46.82;99633.31;5093019;28;20483;-62
2022/08/19 10:30:36;;;;;;;2.28;2.08;;;;;;;28.09;46.56;99637.28;5111876;28;20051;-62
2022/08/19 10:33:03;;;;;;;3.03;2.50;;;;;;;28.12;46.59;99632.50;5111870;28;20050;-61
2022/08/19 10:35:37;;;;;;;3.40;2.40;;;;;;;28.13;46.13;99634.16;5111623;28;20043;-64
2022/08/19 10:38:22;;;;;;;11.60;2.80;;;;;;;28.14;46.49;99635.84;5111456;28;20051;-63
2022/08/19 10:41:06;;;;;;;3.00;2.38;;;;;;;28.15;46.33;99630.22;5111535;28;20149;-62
2022/08/19 10:43:37;;;;;;;3.40;2.35;;;;;;;28.19;46.36;99628.75;5111714;28;20036;-64
2022/08/19 10:46:06;;;;;;;2.88;1.80;;;;;;;28.21;46.67;99633.94;5111512;28;20487;-62
2022/08/19 10:48:43;;;;;;;3.15;2.20;;;;;;;28.23;46.84;99621.88;5094440;28;20089;-63
2022/08/19 10:53:56;;;;;;;2.92;2.70;;;;;;;28.33;47.37;99624.19;5111618;28;20093;-62
2022/08/19 10:59:08;;;;;;;4.03;2.60;;;;;;;28.67;49.04;99615.22;5111079;28;20097;-63
2022/08/19 11:01:35;;;;;;;2.67;2.05;;;;;;;28.94;48.59;99618.75;5111257;28;20096;-63
2022/08/19 11:04:04;;;;;;;3.00;1.90;;;;;;;29.29;47.15;99619.47;5111142;28;20040;-62
2022/08/19 11:06:33;;;;;;;1.98;1.80;;;;;;;29.69;45.89;99615.75;5111147;28;20471;-61
2022/08/19 11:09:05;;;;;;;2.97;1.92;;;;;;;30.13;44.46;99613.19;5111084;28;20047;-62
2022/08/19 11:11:40;;;;;;;3.83;2.03;;;;;;;30.51;44.25;99614.97;5111182;28;20103;-63
2022/08/19 11:14:13;;;;;;;2.40;1.70;;;;;;;30.80;42.27;99620.75;5111521;28;20608;-61
2022/08/19 11:16:42;;;;;;;2.60;2.10;;;;;;;30.98;41.52;99616.38;5093391;28;20044;-62
2022/08/19 11:19:11;;;;;;;2.33;1.50;;;;;;;31.01;41.29;99615.94;5093162;28;20092;-63
2022/08/19 11:21:43;;;;;;;1.25;1.15;;;;;;;31.00;39.30;99610.72;5111455;28;20047;-62
2022/08/19 11:24:13;;;;;;;2.45;1.45;;;;;;;31.06;39.82;99610.63;5111343;28;20048;-62
2022/08/19 11:26:42;;;;;;;4.88;1.77;;;;;;;31.26;41.52;99616.91;5093237;28;20048;-62
2022/08/19 11:29:11;;;;;;;2.60;1.50;;;;;;;31.58;40.93;99611.28;5110441;28;20497;-62
2022/08/19 11:31:40;;;;;;;2.75;1.83;;;;;;;32.02;41.48;99602.91;5111284;28;20047;-61
2022/08/19 11:34:11;;;;;;;1.73;1.50;;;;;;;32.55;40.83;99603.09;5092865;28;20116;-61
2022/08/19 11:36:40;;;;;;;3.15;1.70;;;;;;;33.10;38.88;99595.56;5092878;28;20040;-62
2022/08/19 11:39:09;;;;;;;2.10;1.65;;;;;;;33.54;37.49;99586.03;5111065;28;20055;-63
2022/08/19 11:41:35;;;;;;;1.73;1.60;;;;;;;33.87;37.57;99589.09;5096764;28;20040;-63
2022/08/19 11:44:03;;;;;;;2.45;1.50;;;;;;;34.13;36.97;99582.19;5115097;28;20044;-64
2022/08/19 11:46:29;;;;;;;2.05;1.45;;;;;;;34.42;36.00;99589.44;5115018;28;20047;-61
2022/08/19 11:49:00;;;;;;;1.40;1.30;;;;;;;34.72;34.03;99584.69;5114626;28;20073;-65
2022/08/19 11:51:28;;;;;;;2.08;1.42;;;;;;;35.12;36.13;99586.28;5114660;28;20050;-63
2022/08/19 11:53:55;;;;;;;3.83;1.40;;;;;;;35.53;35.30;99585.06;5114901;28;20100;-63
2022/08/19 11:56:23;;;;;;;1.48;1.33;;;;;;;35.94;34.29;99577.28;5096633;28;20104;-64
2022/08/19 11:58:52;;;;;;;2.05;1.30;;;;;;;36.38;34.14;99575.41;5114617;28;20051;-62
2022/08/19 12:01:20;;;;;;;1.42;1.30;;;;;;;36.82;33.34;99581.69;5114656;28;20082;-62
2022/08/19 12:03:49;;;;;;;1.75;1.27;;;;;;;37.22;32.17;99576.66;5114702;28;20047;-64
2022/08/19 12:06:23;;;;;;;1.45;1.35;;;;;;;37.57;31.26;99574.25;5115023;28;20043;-63
2022/08/19 12:08:50;;;;;;;1.80;1.25;;;;;;;37.88;30.92;99580.59;5114753;28;20046;-62